createdAt,value
2022-09-07T00:01:54.638Z,19.34
2022-09-07T00:04:21.836Z,19.00
2022-09-07T00:06:49.733Z,19.03
2022-09-07T00:09:16.466Z,18.71
2022-09-07T00:11:43.187Z,18.68
2022-09-07T00:14:09.858Z,18.82
2022-09-07T00:16:36.616Z,18.72
2022-09-07T00:19:04.821Z,18.70
2022-09-07T00:21:31.943Z,18.63
2022-09-07T00:23:58.680Z,18.58
2022-09-07T00:26:30.718Z,18.60
2022-09-07T00:28:59.857Z,18.99
2022-09-07T00:31:27.691Z,19.08
2022-09-07T00:33:57.270Z,19.14
2022-09-07T00:36:23.997Z,18.84
2022-09-07T00:38:50.858Z,18.88
2022-09-07T00:41:18.604Z,18.85
2022-09-07T00:43:48.595Z,18.57
2022-09-07T00:46:32.183Z,18.20
2022-09-07T00:49:05.083Z,18.08
2022-09-07T00:51:36.739Z,17.86
2022-09-07T00:54:08.871Z,18.12
2022-09-07T00:56:40.994Z,18.52
2022-09-07T00:59:09.444Z,18.75
2022-09-07T01:01:37.523Z,18.93
2022-09-07T01:04:05.138Z,18.88
2022-09-07T01:06:34.542Z,18.74
2022-09-07T01:09:10.229Z,18.83
2022-09-07T01:11:37.649Z,19.07
2022-09-07T01:14:07.676Z,18.81
2022-09-07T01:17:15.682Z,18.46
2022-09-07T01:20:13.437Z,17.98
2022-09-07T01:22:54.506Z,18.25
2022-09-07T01:25:34.438Z,18.42
2022-09-07T01:28:11.606Z,18.72
2022-09-07T01:30:40.857Z,18.65
2022-09-07T01:33:37.406Z,18.39
2022-09-07T01:36:25.734Z,18.20
2022-09-07T01:38:59.059Z,18.47
2022-09-07T01:41:39.195Z,18.04
2022-09-07T01:44:36.140Z,17.81
2022-09-07T01:47:08.401Z,18.20
2022-09-07T01:50:19.775Z,18.48
2022-09-07T01:52:55.087Z,18.61
2022-09-07T01:55:36.723Z,18.57
2022-09-07T01:58:21.976Z,18.62
2022-09-07T02:00:58.032Z,18.73
2022-09-07T02:03:51.219Z,18.40
2022-09-07T02:06:34.812Z,18.51
2022-09-07T02:09:27.327Z,18.52
2022-09-07T02:11:54.786Z,18.72
2022-09-07T02:14:43.926Z,18.47
2022-09-07T02:17:26.887Z,18.61
2022-09-07T02:20:00.176Z,18.79
2022-09-07T02:22:32.966Z,18.85
2022-09-07T02:25:03.345Z,18.87
2022-09-07T02:27:39.586Z,18.73
2022-09-07T02:30:06.855Z,18.73
2022-09-07T02:32:33.544Z,18.65
2022-09-07T02:35:00.245Z,18.69
2022-09-07T02:37:29.031Z,18.31
2022-09-07T02:39:56.002Z,18.54
2022-09-07T02:42:22.821Z,18.74
2022-09-07T02:44:49.525Z,18.79
2022-09-07T02:47:24.973Z,18.65
2022-09-07T02:50:13.324Z,18.63
2022-09-07T02:53:08.526Z,18.62
2022-09-07T02:56:03.112Z,18.17
2022-09-07T02:58:35.770Z,18.15
2022-09-07T03:01:07.506Z,18.53
2022-09-07T03:04:06.543Z,18.52
2022-09-07T03:06:39.305Z,18.66
2022-09-07T03:09:11.460Z,18.19
2022-09-07T03:11:38.532Z,18.01
2022-09-07T03:14:17.276Z,17.87
2022-09-07T03:16:44.700Z,17.80
2022-09-07T03:19:11.409Z,18.12
2022-09-07T03:21:38.093Z,18.06
2022-09-07T03:24:05.398Z,18.28
2022-09-07T03:26:32.177Z,17.91
2022-09-07T03:28:59.498Z,17.52
2022-09-07T03:31:26.550Z,17.27
2022-09-07T03:33:54.434Z,16.95
2022-09-07T03:36:21.284Z,16.80
2022-09-07T03:38:47.909Z,16.76
2022-09-07T03:41:14.691Z,17.34
2022-09-07T03:43:41.375Z,17.58
2022-09-07T03:46:10.555Z,17.64
2022-09-07T03:48:39.134Z,17.92
2022-09-07T03:51:07.802Z,17.86
2022-09-07T03:53:37.244Z,17.52
2022-09-07T03:56:07.179Z,17.88
2022-09-07T03:58:35.138Z,17.86
2022-09-07T04:01:16.411Z,17.77
2022-09-07T04:03:44.301Z,17.90
2022-09-07T04:06:11.712Z,17.71
2022-09-07T04:08:40.257Z,17.51
2022-09-07T04:11:08.511Z,17.70
2022-09-07T04:13:36.747Z,17.71
2022-09-07T04:16:11.728Z,17.48
2022-09-07T04:18:38.365Z,17.30
2022-09-07T04:21:05.122Z,17.34
2022-09-07T04:23:32.396Z,17.14
2022-09-07T04:25:59.224Z,17.56
2022-09-07T04:28:26.188Z,17.82
2022-09-07T04:30:52.992Z,17.97
2022-09-07T04:33:19.984Z,18.08
2022-09-07T04:35:46.610Z,18.03
2022-09-07T04:38:14.947Z,17.88
2022-09-07T04:40:42.288Z,17.81
2022-09-07T04:43:09.714Z,17.72
2022-09-07T04:45:37.722Z,17.77
2022-09-07T04:48:05.258Z,17.66
2022-09-07T04:50:31.964Z,17.70
2022-09-07T04:52:58.619Z,17.67
2022-09-07T04:55:25.247Z,17.81
2022-09-07T04:57:51.930Z,17.98
2022-09-07T05:00:18.834Z,17.97
2022-09-07T05:02:45.565Z,18.23
2022-09-07T05:05:12.313Z,18.43
2022-09-07T05:07:38.966Z,18.07
2022-09-07T05:10:05.820Z,18.14
2022-09-07T05:12:32.851Z,18.07
2022-09-07T05:14:59.677Z,18.01
2022-09-07T05:17:26.411Z,17.42
2022-09-07T05:19:54.893Z,17.69
2022-09-07T05:22:22.398Z,17.71
2022-09-07T05:24:49.040Z,17.62
2022-09-07T05:27:15.715Z,17.71
2022-09-07T05:32:29.834Z,18.06
2022-09-07T05:34:56.514Z,18.20
2022-09-07T05:37:23.164Z,18.23
2022-09-07T05:39:51.941Z,18.33
2022-09-07T05:42:18.612Z,18.46
2022-09-07T05:44:45.799Z,18.26
2022-09-07T05:47:13.234Z,18.66
2022-09-07T05:49:40.207Z,19.00
2022-09-07T05:52:06.959Z,18.92
2022-09-07T05:54:33.693Z,18.67
2022-09-07T05:57:00.501Z,18.70
2022-09-07T05:59:27.184Z,18.77
2022-09-07T06:01:53.881Z,18.70
2022-09-07T06:04:20.680Z,18.59
2022-09-07T06:06:59.255Z,18.87
2022-09-07T06:09:34.422Z,18.20
2022-09-07T06:12:04.645Z,18.37
2022-09-07T06:14:32.196Z,18.25
2022-09-07T06:16:58.993Z,18.52
2022-09-07T06:19:25.691Z,18.66
2022-09-07T06:21:52.383Z,18.90
2022-09-07T06:24:19.103Z,19.42
2022-09-07T06:26:45.768Z,19.01
2022-09-07T06:29:12.555Z,18.87
2022-09-07T06:34:26.424Z,19.14
2022-09-07T06:36:53.122Z,18.98
2022-09-07T06:39:19.759Z,19.58
2022-09-07T06:42:01.820Z,19.96
2022-09-07T06:44:28.448Z,19.59
2022-09-07T06:49:28.747Z,19.94
2022-09-07T06:51:55.582Z,19.60
2022-09-07T06:57:14.615Z,19.37
2022-09-07T06:59:41.290Z,19.77
2022-09-07T07:02:11.628Z,19.67
2022-09-07T07:04:41.146Z,19.66
2022-09-07T07:07:12.685Z,19.24
2022-09-07T07:09:40.220Z,19.61
2022-09-07T07:12:07.172Z,19.93
2022-09-07T07:14:37.244Z,19.72
2022-09-07T07:17:06.726Z,20.26
2022-09-07T07:19:33.346Z,20.56
2022-09-07T07:22:36.013Z,20.72
2022-09-07T07:24:48.608Z,20.01
2022-09-07T07:27:15.467Z,19.94
2022-09-07T07:29:42.129Z,20.36
2022-09-07T07:32:08.859Z,20.41
2022-09-07T07:34:35.578Z,20.32
2022-09-07T07:37:02.354Z,20.85
2022-09-07T07:42:15.703Z,20.81
2022-09-07T07:44:42.314Z,20.92
2022-09-07T07:47:08.922Z,21.08
2022-09-07T07:49:35.592Z,21.18
2022-09-07T07:54:48.987Z,21.57
2022-09-07T07:57:18.890Z,21.62
2022-09-07T07:59:45.494Z,20.81
2022-09-07T08:02:15.807Z,20.85
2022-09-07T08:04:42.671Z,20.86
2022-09-07T08:07:11.973Z,20.86
2022-09-07T08:09:43.624Z,21.21
2022-09-07T08:12:16.973Z,21.33
2022-09-07T08:14:43.800Z,21.28
2022-09-07T08:17:13.012Z,21.22
2022-09-07T08:19:39.966Z,21.20
2022-09-07T08:22:07.840Z,20.71
2022-09-07T08:24:34.697Z,21.33
2022-09-07T08:27:01.972Z,21.55
2022-09-07T08:29:32.579Z,21.82
2022-09-07T08:32:01.044Z,21.08
2022-09-07T08:34:27.745Z,21.41
2022-09-07T08:36:54.871Z,21.46
2022-09-07T08:39:21.529Z,21.90
2022-09-07T08:42:14.855Z,21.33
2022-09-07T08:44:48.937Z,21.59
2022-09-07T08:47:28.578Z,21.68
2022-09-07T08:49:58.091Z,21.94
2022-09-07T08:52:57.085Z,22.03
2022-09-07T08:55:34.834Z,21.92
2022-09-07T08:58:48.222Z,21.60
2022-09-07T09:01:36.555Z,22.30
2022-09-07T09:04:18.522Z,22.41
2022-09-07T09:06:53.805Z,22.52
2022-09-07T09:09:42.287Z,22.61
2022-09-07T09:12:11.983Z,22.77
2022-09-07T09:14:53.881Z,22.66
2022-09-07T09:17:47.060Z,22.36
2022-09-07T09:20:37.205Z,22.75
2022-09-07T09:23:15.180Z,22.28
2022-09-07T09:25:56.772Z,22.64
2022-09-07T09:28:24.734Z,22.70
2022-09-07T09:30:53.237Z,23.14
2022-09-07T09:33:20.363Z,21.98
2022-09-07T09:35:52.788Z,22.80
2022-09-07T09:38:34.567Z,23.09
2022-09-07T09:41:15.284Z,23.06
2022-09-07T09:43:46.763Z,22.51
2022-09-07T09:46:35.277Z,22.85
2022-09-07T09:49:28.171Z,22.85
2022-09-07T09:54:48.651Z,22.95
2022-09-07T09:57:16.902Z,22.98
2022-09-07T10:00:02.758Z,23.48
2022-09-07T10:05:27.697Z,23.48
2022-09-07T10:07:57.800Z,23.04
2022-09-07T10:10:26.594Z,23.43
2022-09-07T10:12:55.142Z,23.53
2022-09-07T10:15:29.198Z,23.66
2022-09-07T10:17:56.967Z,23.96
2022-09-07T10:20:35.568Z,24.17
2022-09-07T10:23:03.238Z,23.31
2022-09-07T10:25:41.877Z,23.76
2022-09-07T10:28:12.633Z,24.13
2022-09-07T10:30:56.221Z,24.10
2022-09-07T10:34:25.728Z,23.67
2022-09-07T10:36:57.045Z,23.74
2022-09-07T10:39:28.011Z,23.01
2022-09-07T10:42:23.600Z,23.64
2022-09-07T10:44:53.142Z,23.75
2022-09-07T10:47:25.915Z,23.92
2022-09-07T10:50:22.778Z,23.93
2022-09-07T10:52:55.839Z,23.86
2022-09-07T10:55:39.257Z,24.08
2022-09-07T10:59:01.593Z,24.25
2022-09-07T11:01:26.951Z,24.23
2022-09-07T11:04:31.074Z,24.27
2022-09-07T11:07:15.905Z,24.43
2022-09-07T11:10:34.972Z,24.03
2022-09-07T11:13:05.814Z,24.38
2022-09-07T11:15:50.743Z,24.51
2022-09-07T11:18:40.200Z,24.51
2022-09-07T11:21:14.658Z,23.67
2022-09-07T11:23:45.863Z,24.44
2022-09-07T11:26:36.127Z,24.71
2022-09-07T11:29:32.145Z,24.68
2022-09-07T11:32:06.769Z,24.57
2022-09-07T11:34:45.143Z,25.08
2022-09-07T11:37:20.460Z,24.74
2022-09-07T11:40:00.666Z,25.13
2022-09-07T11:42:50.349Z,25.14
2022-09-07T11:45:41.545Z,25.32
2022-09-07T11:48:21.476Z,25.10
2022-09-07T11:50:53.232Z,25.16
2022-09-07T11:53:27.720Z,24.96
2022-09-07T11:55:59.255Z,25.29
2022-09-07T11:58:28.523Z,24.69
2022-09-07T12:01:13.583Z,24.89
2022-09-07T12:04:13.241Z,25.47
2022-09-07T12:07:06.373Z,25.44
2022-09-07T12:09:32.983Z,25.03
2022-09-07T12:12:18.431Z,25.14
2022-09-07T12:14:47.693Z,25.40
2022-09-07T12:17:29.639Z,25.42
2022-09-07T12:20:23.669Z,25.20
2022-09-07T12:23:15.175Z,25.72
2022-09-07T12:25:52.354Z,25.28
2022-09-07T12:28:24.650Z,25.24
2022-09-07T12:31:04.456Z,25.51
2022-09-07T12:33:39.488Z,25.78
2022-09-07T12:36:27.594Z,25.39
2022-09-07T12:39:25.737Z,25.55
2022-09-07T12:45:28.915Z,25.55
2022-09-07T12:48:04.596Z,25.54
2022-09-07T12:50:56.476Z,25.63
2022-09-07T12:53:36.793Z,25.78
2022-09-07T12:56:15.826Z,25.99
2022-09-07T12:58:51.075Z,25.75
2022-09-07T13:01:44.180Z,25.95
2022-09-07T13:04:32.150Z,26.02
2022-09-07T13:07:17.077Z,26.06
2022-09-07T13:09:57.999Z,26.27
2022-09-07T13:12:54.198Z,26.33
2022-09-07T13:15:51.160Z,26.60
2022-09-07T13:18:29.786Z,25.23
2022-09-07T13:21:08.287Z,26.02
2022-09-07T13:23:37.827Z,25.94
2022-09-07T13:26:09.123Z,26.30
2022-09-07T13:28:38.476Z,26.02
2022-09-07T13:31:13.995Z,26.04
2022-09-07T13:33:50.421Z,25.64
2022-09-07T13:36:25.827Z,26.16
2022-09-07T13:38:54.981Z,26.07
2022-09-07T13:41:32.133Z,26.03
2022-09-07T13:44:02.296Z,26.49
2022-09-07T13:46:35.048Z,26.39
2022-09-07T13:49:13.287Z,26.03
2022-09-07T13:51:55.922Z,26.34
2022-09-07T13:54:40.447Z,26.12
2022-09-07T13:57:27.601Z,26.71
2022-09-07T13:59:55.922Z,26.24
2022-09-07T14:02:35.967Z,26.24
2022-09-07T14:05:06.591Z,26.25
2022-09-07T14:07:33.175Z,26.03
2022-09-07T14:10:19.716Z,26.25
2022-09-07T14:12:50.589Z,26.74
2022-09-07T14:15:29.293Z,26.83
2022-09-07T14:18:34.613Z,26.19
2022-09-07T14:21:01.614Z,26.58
2022-09-07T14:23:32.638Z,26.45
2022-09-07T14:26:16.636Z,26.51
2022-09-07T14:28:46.024Z,26.55
2022-09-07T14:31:15.166Z,26.25
2022-09-07T14:33:52.775Z,25.96
2022-09-07T14:36:42.432Z,26.49
2022-09-07T14:39:11.876Z,26.08
2022-09-07T14:41:40.667Z,26.24
2022-09-07T14:44:26.199Z,26.11
2022-09-07T14:46:56.822Z,25.74
2022-09-07T14:49:24.736Z,26.27
2022-09-07T14:51:53.629Z,26.63
2022-09-07T14:54:27.789Z,26.19
2022-09-07T14:57:02.540Z,25.15
2022-09-07T14:59:42.687Z,25.92
2022-09-07T15:02:18.558Z,26.26
2022-09-07T15:05:20.574Z,26.48
2022-09-07T15:08:05.486Z,26.31
2022-09-07T15:10:36.887Z,26.25
2022-09-07T15:13:06.245Z,26.42
2022-09-07T15:15:39.600Z,25.61
2022-09-07T15:18:44.703Z,25.99
2022-09-07T15:21:11.448Z,26.12
2022-09-07T15:23:38.079Z,26.29
2022-09-07T15:26:05.350Z,26.39
2022-09-07T15:34:20.060Z,26.17
2022-09-07T15:36:52.223Z,26.20
2022-09-07T15:39:25.783Z,25.95
2022-09-07T15:41:52.979Z,26.01
2022-09-07T15:44:25.012Z,25.80
2022-09-07T15:49:49.288Z,25.46
2022-09-07T15:52:19.738Z,25.83
2022-09-07T15:54:46.774Z,25.90
2022-09-07T16:00:00.088Z,25.82
2022-09-07T16:05:13.361Z,25.76
2022-09-07T16:10:31.060Z,25.52
2022-09-07T16:13:02.916Z,25.39
2022-09-07T16:15:45.209Z,25.28
2022-09-07T16:18:16.601Z,25.21
2022-09-07T16:20:44.007Z,25.08
2022-09-07T16:23:13.675Z,25.03
2022-09-07T16:25:42.387Z,24.94
2022-09-07T16:28:09.817Z,24.85
2022-09-07T16:30:39.692Z,24.79
2022-09-07T16:33:06.487Z,24.66
2022-09-07T16:35:33.285Z,24.57
2022-09-07T16:40:46.714Z,24.39
2022-09-07T16:43:13.322Z,24.40
2022-09-07T16:48:26.650Z,24.32
2022-09-07T16:51:01.094Z,24.27
2022-09-07T16:53:30.942Z,24.23
2022-09-07T16:56:05.229Z,24.00
2022-09-07T16:58:37.540Z,24.11
2022-09-07T17:01:05.874Z,23.93
2022-09-07T17:03:32.933Z,23.89
2022-09-07T17:06:01.492Z,23.77
2022-09-07T17:08:28.372Z,23.80
2022-09-07T17:50:29.512Z,23.13
2022-09-07T17:52:56.183Z,23.18
2022-09-07T17:55:24.470Z,23.22
2022-09-07T17:57:51.137Z,23.17
2022-09-07T18:00:17.766Z,23.16
2022-09-07T18:02:44.515Z,23.13
2022-09-07T18:05:11.290Z,23.06
2022-09-07T18:07:37.985Z,23.07
2022-09-07T18:10:04.979Z,22.54
2022-09-07T18:12:32.718Z,22.17
2022-09-07T18:14:59.704Z,21.84
2022-09-07T18:17:27.570Z,21.89
2022-09-07T18:19:54.748Z,21.93
2022-09-07T18:22:21.514Z,22.15
2022-09-07T18:24:48.337Z,21.79
2022-09-07T18:27:14.986Z,22.55
2022-09-07T18:29:43.428Z,22.89
2022-09-07T18:32:10.536Z,22.95
2022-09-07T18:34:41.173Z,22.91
2022-09-07T18:37:08.309Z,22.91
2022-09-07T18:39:35.661Z,22.91
2022-09-07T18:42:02.664Z,22.85
2022-09-07T18:47:27.654Z,22.57
2022-09-07T18:49:55.235Z,22.56
2022-09-07T18:55:10.562Z,22.53
2022-09-07T18:57:37.718Z,22.48
2022-09-07T19:00:07.282Z,22.41
2022-09-07T19:02:34.786Z,22.44
2022-09-07T19:07:48.500Z,22.41
2022-09-07T19:10:16.929Z,22.39
2022-09-07T19:12:45.857Z,22.36
2022-09-07T19:15:13.435Z,22.39
2022-09-07T19:17:46.234Z,22.39
2022-09-07T19:20:12.977Z,22.39
2022-09-07T19:22:39.691Z,22.23
2022-09-07T19:25:06.653Z,22.20
2022-09-07T19:27:33.470Z,22.00
2022-09-07T19:30:00.430Z,22.00
2022-09-07T19:32:27.487Z,22.03
2022-09-07T19:34:55.422Z,22.07
2022-09-07T19:37:25.780Z,21.92
2022-09-07T19:39:56.487Z,21.98
2022-09-07T19:42:23.877Z,21.71
2022-09-07T19:44:50.914Z,21.40
2022-09-07T19:47:17.910Z,21.53
2022-09-07T19:49:44.636Z,21.69
2022-09-07T19:52:11.776Z,21.67
2022-09-07T19:54:38.530Z,21.61
2022-09-07T19:57:05.784Z,21.67
2022-09-07T19:59:32.509Z,21.73
2022-09-07T20:02:00.626Z,21.76
2022-09-07T20:04:28.307Z,21.82
2022-09-07T20:06:55.024Z,21.81
2022-09-07T20:09:21.705Z,21.86
2022-09-07T20:11:48.659Z,21.82
2022-09-07T20:14:16.616Z,21.87
2022-09-07T20:16:43.760Z,21.86
2022-09-07T20:19:13.697Z,21.76
2022-09-07T20:21:40.494Z,21.57
2022-09-07T20:24:07.144Z,21.51
2022-09-07T20:26:33.867Z,21.57
2022-09-07T20:31:47.567Z,21.50
2022-09-07T20:34:14.426Z,21.42
2022-09-07T20:36:41.423Z,21.40
2022-09-07T20:39:08.039Z,21.51
2022-09-07T20:41:34.894Z,21.56
2022-09-07T20:44:03.284Z,21.57
2022-09-07T20:46:30.876Z,21.51
2022-09-07T20:48:58.460Z,21.61
2022-09-07T20:51:25.821Z,21.45
2022-09-07T20:53:53.040Z,21.51
2022-09-07T20:56:28.027Z,21.26
2022-09-07T20:59:00.391Z,21.44
2022-09-07T21:01:28.270Z,21.24
2022-09-07T21:03:57.557Z,21.32
2022-09-07T21:06:25.536Z,21.45
2022-09-07T21:08:52.779Z,21.31
2022-09-07T21:11:38.519Z,21.24
2022-09-07T21:14:08.423Z,21.47
2022-09-07T21:16:36.018Z,21.37
2022-09-07T21:21:56.252Z,21.33
2022-09-07T21:24:23.915Z,21.24
2022-09-07T21:26:51.284Z,21.41
2022-09-07T21:29:21.910Z,21.46
2022-09-07T21:31:49.047Z,21.32
2022-09-07T21:34:16.702Z,21.32
2022-09-07T21:36:43.684Z,21.41
2022-09-07T21:42:06.442Z,21.35
2022-09-07T21:44:33.071Z,21.30
2022-09-07T21:46:59.834Z,21.35
2022-09-07T21:49:26.521Z,21.06
2022-09-07T21:51:53.134Z,20.94
2022-09-07T21:54:19.852Z,20.79
2022-09-07T21:56:47.179Z,20.91
2022-09-07T21:59:13.798Z,20.86
2022-09-07T22:01:41.032Z,20.93
2022-09-07T22:04:07.775Z,20.52
2022-09-07T22:06:35.045Z,20.09
2022-09-07T22:09:02.431Z,19.23
2022-09-07T22:11:32.824Z,19.82
2022-09-07T22:14:01.986Z,19.31
2022-09-07T22:16:29.565Z,18.99
2022-09-07T22:18:56.369Z,19.64
2022-09-07T22:21:25.640Z,20.10
2022-09-07T22:23:55.938Z,20.20
2022-09-07T22:26:25.807Z,20.25
2022-09-07T22:28:52.843Z,20.35
2022-09-07T22:31:22.534Z,20.52
2022-09-07T22:33:50.850Z,20.50
2022-09-07T22:36:23.124Z,20.39
2022-09-07T22:38:53.293Z,20.52
2022-09-07T22:41:22.978Z,20.62
2022-09-07T22:43:51.085Z,20.22
2022-09-07T22:46:22.326Z,19.60
2022-09-07T22:48:49.582Z,19.87
2022-09-07T22:51:17.067Z,20.03
2022-09-07T22:53:44.574Z,20.22
2022-09-07T22:56:18.639Z,20.27
2022-09-07T22:58:54.292Z,20.05
2022-09-07T23:01:22.055Z,20.15
2022-09-07T23:03:49.539Z,20.35
2022-09-07T23:06:22.735Z,20.32
2022-09-07T23:08:51.682Z,20.32
2022-09-07T23:11:19.607Z,20.08
2022-09-07T23:13:49.599Z,20.27
2022-09-07T23:16:16.230Z,20.27
2022-09-07T23:18:45.166Z,20.29
2022-09-07T23:21:12.215Z,20.18
2022-09-07T23:23:38.956Z,20.31
2022-09-07T23:28:58.915Z,20.07
2022-09-07T23:31:26.619Z,20.04
2022-09-07T23:33:53.470Z,20.08
2022-09-07T23:36:20.508Z,20.07
2022-09-07T23:38:47.409Z,20.09
2022-09-07T23:41:14.825Z,20.11
2022-09-07T23:43:41.827Z,19.81
2022-09-07T23:46:09.776Z,19.78
2022-09-07T23:48:36.573Z,19.25
2022-09-07T23:53:53.743Z,18.75
2022-09-07T23:56:20.873Z,18.89
2022-09-07T23:58:47.903Z,19.24
